map of LEB home
LEB - Airport
Location
City:  Lebanon, New Hampshire, United States
Name:Lebanon Municipal Airport
ICAO:KLEB
IATA:LEB
FAA LID:LEB

Details
Type:Airport (Airfield)
Use:Public/Civil
Latitude:4337'34"N (43.626111)
Longitude:7218'15"W (-72.304193)
Datum:WGS 1984
Elevation:603 ft (184 m)
Variation:14.28W (WMM2015v2 magnetic declination)
0.09 annual change
Runways:2
Longest:5496 × 100 ft (1675 × 30.5 m), paved

Time
Time Zone:UTC-5 (DST-4)
Local Time:

Weather
METAR:KLEB 041353Z 05004KT 6SM HZ OVC060 02/M02 A3000 RMK AO2 SLP165 T00221017
TAF:KLEB 041120Z 0412/0512 VRB03KT P6SM BKN100

Related Locations
Nearby:
Farthest:YAUG: 11677 mi / 18793 km
Augusta [Augusta Airport], WA, AU

Find:

   beyond  
but within

Other Information
Maps:
Delays:
NOTAMs:
Links:
Sources:

  
  • flag of United States
  • flag of New Hampshire
  

Airport Diagram

Airport diagram for LEB

Airport diagram PDF from FAA

Sectional Chart

Flight Planning
at skyvector.com

Satellite Image

Google Maps Satellite view

 

Copyright © 2004-2019 Karl L. Swartz. All rights reserved.
The Great Circle Mapper name and logo are trademarks of the Great Circle Mapper.
All other trademarks mentioned herein belong to their respective owners.
Please see credits for attibutions and further copyright information.

  Follow gcmap on Facebook Follow gcmap on Twitter GCmap on LinkedIn

hCard Microformat

Geo Microformat